Tianjin Binhai International Airport
ZBTJ : now visible

Airfield :











YOU CAN JOIN US ON...

 
LOGIN :

Register | Disclaimer

   EN    FR    IT 

 









Legend :    VFR   Marginal VFR   IFR   Intensive IFR   Very Intensive IFR
Visi :
Ceiling :
>= 8 km
>= 3000ft
5 to 8 km
1000 to 3000 ft
1500m to 5 km
500 to 1000 ft
800 to 1500m
200 to 500 ft
< 800m
< 200 ft
Symbols :   Thunderstorms  Fog  Heavy snow  Heavy precipitations  Wind > 20 kt







- Airport Elevation : 10 ft
- IATA code : TSN


ZBTJ - Tianjin Binhai International

CURRENT METAR :
  • 260730Z 02005MPS 4000 -SHRA BR OVC040 21/19 Q1002 NOSIG

EXPIRED METARs :
  • 260700Z 36003MPS 4000 -SHRA BR FEW010 OVC040 21/19 Q1002 BECMG TL0830 2500 SHRA
  • 260630Z 01004MPS 5000 -SHRA BR SCT010 OVC040 20/19 Q1002 NOSIG
  • 260600Z 36005MPS 5000 -SHRA BR FEW010 BKN040 FEW040CB 20/19 Q1002 NOSIG
  • 260530Z 35007MPS 3000 R34R/0700V1000D -SHRA BR FEW010 BKN040 FEW040CB 20/19 Q1002 RETSRA NOSIG
  • 260500Z 34011MPS 2800 R34R/0800V1300U TSRA BR FEW008 BKN033 SCT033CB 19/19 Q1002 BECMG TL0600 32005MPS 3000 -RA

TAF TAF ZBTJ
Valid from the 26 at 00:00 until the 27 at 00:00 UTC


251939Z 2600/2624 18004MPS 5000 HZ NSC TX31/2603Z TN15/2620Z
BECMG 2609/2610 34008G15MPS
TEMPO 2603/2609 34009G16MPS TSRA SCT040CB BKN040
ZBPE FIR / Asia



MET'MAP, your aeronautical weather chart ! - Copyright ORBIFLY December 2007 - Disclaimer

ORBIFLY MET'MAP TEAM :

Programming & Development : Alexandra Zaïnal
Concept & Development : Baudouin d'Aumeries
Co-Development & Prog : Marc-Olivier Méhu
Technical & hardware support : Manuel Goepfert

Contact : metmap@orbifly.com




SOURCES & CREDITS :

   NOAA       Earth
Advisory